Daglege Rapportar

Klikk her for oppdatering!


Detaljar i dag

20/7/18
Time         Wind Dir   Wind Spd  Wind Gust   Humidity       Temp  Raw Barom   Tot Rain Temp Out H Temp Out L  DailyRain   HourRain
                            mps        mps          %         C         mb         mm         C         C         mm         mm
0:00                0          0          0         64       16.2    1005.04    1255.00       16.2       16.2       0.00       0.00
1:00                0          0          0         68       15.5    1005.04    1255.00       16.3       15.5       0.00       0.00
2:00                0          0          0         69       15.1    1005.04    1255.00       16.3       15.1       0.00       0.00
3:00                0          0          0         75       14.1    1005.04    1255.00       16.3       14.1       0.00       0.00
4:00                0          0          0         76       14.0    1005.04    1255.00       16.3       13.9       0.00       0.00
5:00                0          0          0         76       14.1    1005.04    1255.00       16.3       13.7       0.00       0.00
6:00                0          0          0         78       13.9    1005.04    1255.00       16.3       13.7       0.00       0.00
7:00                0          0          0         80       14.2    1004.04    1255.00       16.3       13.7       0.00       0.00
8:00                0          0          0         70       16.6    1004.04    1255.00       16.6       13.7       0.00       0.00
9:00                0          0          0         67       17.5    1004.04    1255.00       17.5       13.7       0.00       0.00
10:00               0          0          0         70       18.0    1004.04    1255.00       18.3       13.7       0.00       0.00
11:00               0          0          0         60       19.9    1004.04    1255.00       20.4       13.7       0.00       0.00
12:00               0          0          0         60       21.1    1003.04    1255.00       21.4       13.7       0.00       0.00
13:00               0          0          0         50       22.2    1002.04    1255.00       22.2       13.7       0.00       0.00
14:00               0          0          0         42       23.4    1002.04    1255.00       23.4       13.7       0.00       0.00

 


Detaljar i gr

19/7/18
Time         Wind Dir   Wind Spd  Wind Gust   Humidity       Temp  Raw Barom   Tot Rain Temp Out H Temp Out L  DailyRain   HourRain
                            mps        mps          %         C         mb         mm         C         C         mm         mm
0:00                0          0          0         68       16.2    1007.04    1255.00       16.2       16.2       0.00       0.00
1:00                0          0          0         71       15.6    1008.04    1255.00       16.2       15.6       0.00       0.00
2:00                0          0          0         70       15.4    1008.04    1255.00       16.2       15.4       0.00       0.00
3:00                0          0          0         74       14.7    1008.04    1255.00       16.2       14.3       0.00       0.00
4:00                0          0          0         73       14.4    1009.04    1255.00       16.2       14.3       0.00       0.00
5:00                0          0          0         78       13.3    1009.04    1255.00       16.2       13.3       0.00       0.00
6:00                0          0          0         80       13.4    1009.04    1255.00       16.2       13.2       0.00       0.00
7:00                0          0          0         82       13.2    1009.04    1255.00       16.2       13.1       0.00       0.00
8:00                0          0          0         70       15.8    1009.04    1255.00       16.2       13.1       0.00       0.00
9:00                0          0          0         67       17.8    1009.04    1255.00       17.8       13.1       0.00       0.00
10:00               0          0          0         57       19.3    1009.04    1255.00       19.3       13.1       0.00       0.00
11:00               0          0          0         51       20.3    1009.04    1255.00       20.3       13.1       0.00       0.00
12:00               0          0          0         54       20.7    1009.04    1255.00       20.7       13.1       0.00       0.00
13:00               0          0          0         48       21.8    1008.04    1255.00       21.8       13.1       0.00       0.00
14:00               0          0          0         47       22.2    1007.04    1255.00       22.2       13.1       0.00       0.00
15:00               0          0          0         43       22.9    1007.04    1255.00       23.3       13.1       0.00       0.00
16:00               0          0          0         41       23.2    1007.04    1255.00       23.6       13.1       0.00       0.00
17:00               0          0          0         39       22.8    1006.04    1255.00       23.6       13.1       0.00       0.00
18:00               0          0          0         40       23.2    1006.04    1255.00       23.7       13.1       0.00       0.00
19:00               0          0          0         42       22.1    1005.04    1255.00       23.7       13.1       0.00       0.00
20:00               0          0          0         45       20.4    1005.04    1255.00       23.7       13.1       0.00       0.00
21:00               0          0          0         48       19.5    1005.04    1255.00       23.7       13.1       0.00       0.00
22:00               0          0          0         54       18.2    1005.04    1255.00       23.7       13.1       0.00       0.00
23:00               0          0          0         63       16.7    1005.04    1255.00       23.7       13.1       0.00       0.00